Terminal Aerodrome Forecast
Issued by NWS

Home | Current Version | Previous Version | Text Only | Print | Product List | Glossary On
Versions: 1 2 3 4 5 6 7 8 9 10 11 12 13 14 15
558
FTAK31 PAJN 172320
TAFAPG
TAF
PAPG 172320Z 1800/1824 VRB05KT P6SM VCSH SCT025 BKN050
      TEMPO 1800/1804 5SM -SHRA BR BKN025
     FM180400 11006KT P6SM -SHRA OVC040 WS020/12025KT
     FM180800 12012G22KT P6SM -SHRA OVC040
     FM181200 10012G18KT 3SM -RA BR OVC025
     FM181800 08006KT 6SM -RA BR BKN025 OVC050
      AMD LTD TO CLD VIS AND WIND 1806/1815=

USA.gov is the U.S. government's official web portal to all federal, state and local government web resources and services.